シンガポール/チャンギ の空港の天気 - METARとTAF

シンガポール・チャンギ国際空港 ( WSSS / SIN ) - シンガポール Changi
飛行場実況気象(Metar)
観測時間10/31 06:30 SGT (10/30 22:30 UTC)
風向・風速不定 1m/s
視程10km以上
天気現象
少しの雲 雲底高度 550m
全天の8割程度の雲 雲底高度 9140m
気温27℃
湿度84%
気圧1010hPa
METARWSSS 302230Z VRB02KT 9999 FEW018 BKN300 27/24 Q1010 NOSIG
過去の天気等 Google飛行場航空写真 Wunderground天気予報

過去48時間のMETAR

飛行場予報(TAF)
発表時間: 10/31 01:00 SGT (10/30 17:00 UTC)
予報対象時間: 31日2時 SGT ~ 1日8時 SGT
風向・風速不定 3m/s
視程10km以上
少しの雲 雲底高度 460m
全天の4割程度の雲 雲底高度 610m
31日14時 SGT ~ 31日18時 SGT に一時的に
視程3000m
天気現象雷雨
少しの積乱雲 雲底高度 370m
全天の8割程度の雲 雲底高度 460m
TAF WSSS 301700Z 3018/0100 VRB05KT 9999 FEW015 SCT020
TEMPO 3106/3110 3000 TSRA FEW012CB BKN015